createdAt,value
2022-11-16T00:01:42.939Z,96107.28
2022-11-16T00:04:32.439Z,96096.22
2022-11-16T00:07:21.559Z,96105.88
2022-11-16T00:10:13.090Z,96100.38
2022-11-16T00:13:02.664Z,96099.13
2022-11-16T00:16:03.914Z,96094.41
2022-11-16T00:19:05.009Z,96086.47
2022-11-16T00:22:00.482Z,96093.03
2022-11-16T00:24:47.674Z,96091.38
2022-11-16T00:27:34.842Z,96077.53
2022-11-16T00:30:33.098Z,96064.69
2022-11-16T00:33:22.902Z,96075.94
2022-11-16T00:36:12.021Z,96064.91
2022-11-16T00:39:03.444Z,96056.16
2022-11-16T00:41:53.635Z,96050.06
2022-11-16T00:44:47.787Z,96050.88
2022-11-16T00:47:42.112Z,96051.69
2022-11-16T00:50:29.128Z,96044.53
2022-11-16T00:53:21.343Z,96065.56
2022-11-16T00:56:14.438Z,96055.56
2022-11-16T00:59:02.801Z,96072.63
2022-11-16T01:01:49.868Z,96055.56
2022-11-16T01:04:36.833Z,96053.91
2022-11-16T01:07:25.912Z,96058.81
2022-11-16T01:10:20.555Z,96042.88
2022-11-16T01:13:10.099Z,96030.50
2022-11-16T01:16:08.158Z,96029.06
2022-11-16T01:18:58.460Z,96012.97
2022-11-16T01:21:46.814Z,96021.69
2022-11-16T01:24:36.671Z,96025.75
2022-11-16T01:27:25.964Z,96009.72
2022-11-16T01:30:15.527Z,96013.63
2022-11-16T01:33:03.891Z,96011.72
2022-11-16T01:35:53.453Z,96013.78
2022-11-16T01:38:46.700Z,96018.00
2022-11-16T01:41:35.118Z,96017.59
2022-11-16T01:44:37.049Z,96023.94
2022-11-16T01:47:27.586Z,96004.59
2022-11-16T01:50:20.700Z,96002.38
2022-11-16T01:53:12.473Z,96002.31
2022-11-16T01:55:59.435Z,96003.94
2022-11-16T01:58:46.654Z,96012.31
2022-11-16T02:01:35.158Z,96000.88
2022-11-16T02:04:26.030Z,96002.31
2022-11-16T02:07:23.667Z,95996.22
2022-11-16T02:10:23.313Z,95997.41
2022-11-16T02:13:34.794Z,96004.97
2022-11-16T02:16:36.841Z,96001.75
2022-11-16T02:19:47.998Z,95988.53
2022-11-16T02:22:55.311Z,95994.81
2022-11-16T02:26:06.576Z,95984.63
2022-11-16T02:29:41.511Z,95985.44
2022-11-16T02:32:39.928Z,95976.84
2022-11-16T02:35:39.743Z,95978.28
2022-11-16T02:38:29.086Z,95968.50
2022-11-16T02:41:24.472Z,95971.78
2022-11-16T02:44:24.933Z,95963.00
2022-11-16T02:47:21.371Z,95962.34
2022-11-16T02:50:15.923Z,95972.97
2022-11-16T02:53:07.288Z,95954.84
2022-11-16T02:55:56.548Z,95945.88
2022-11-16T02:58:45.251Z,95965.88
2022-11-16T03:01:37.241Z,95954.00
2022-11-16T03:04:29.726Z,95966.44
2022-11-16T03:07:20.851Z,95949.13
2022-11-16T03:10:08.452Z,95953.00
2022-11-16T03:12:55.512Z,95947.28
2022-11-16T03:15:42.927Z,95947.28
2022-11-16T03:18:39.988Z,95953.44
2022-11-16T03:21:47.553Z,95947.94
2022-11-16T03:24:37.169Z,95943.63
2022-11-16T03:27:35.997Z,95928.13
2022-11-16T03:30:24.484Z,95945.31
2022-11-16T03:33:45.051Z,95943.03
2022-11-16T03:36:34.391Z,95943.84
2022-11-16T03:39:28.078Z,95939.16
2022-11-16T03:42:15.239Z,95953.81
2022-11-16T03:45:03.749Z,95961.75
2022-11-16T03:47:52.373Z,95956.78
2022-11-16T03:50:42.890Z,95973.06
2022-11-16T03:53:31.107Z,95979.56
2022-11-16T03:56:18.246Z,95985.88
2022-11-16T03:59:08.014Z,95974.69
2022-11-16T04:02:06.302Z,95984.47
2022-11-16T04:05:14.288Z,95987.31
2022-11-16T04:08:25.894Z,95979.19
2022-11-16T04:11:46.952Z,95987.31
2022-11-16T04:14:52.828Z,95973.03
2022-11-16T04:18:14.706Z,95977.13
2022-11-16T04:21:21.148Z,95966.91
2022-11-16T04:24:16.089Z,95972.91
2022-11-16T04:27:24.950Z,95973.03
2022-11-16T04:30:12.570Z,95977.31
2022-11-16T04:33:18.020Z,95985.03
2022-11-16T04:36:25.632Z,95970.22
2022-11-16T04:39:12.634Z,95962.00
2022-11-16T04:42:22.890Z,95965.50
2022-11-16T04:45:30.907Z,95975.50
2022-11-16T04:48:19.310Z,95960.22
2022-11-16T04:51:06.405Z,95967.31
2022-11-16T04:53:53.354Z,95968.16
2022-11-16T04:56:40.226Z,95960.97
2022-11-16T04:59:27.040Z,95977.69
2022-11-16T05:02:16.753Z,95969.94
2022-11-16T05:05:03.652Z,95963.03
2022-11-16T05:07:51.218Z,95973.22
2022-11-16T05:10:38.091Z,95957.31
2022-11-16T05:13:24.887Z,95966.91
2022-11-16T05:16:11.751Z,95966.88
2022-11-16T05:19:17.325Z,95974.41
2022-11-16T05:22:06.327Z,95987.19
2022-11-16T05:24:53.687Z,96019.97
2022-11-16T05:27:40.589Z,96031.16
2022-11-16T05:30:29.689Z,96035.84
2022-11-16T05:33:17.815Z,96039.50
2022-11-16T05:36:04.782Z,96046.59
2022-11-16T05:38:56.065Z,96049.22
2022-11-16T05:41:43.221Z,96048.41
2022-11-16T05:44:29.969Z,96049.19
2022-11-16T05:47:16.900Z,96028.22
2022-11-16T05:50:04.007Z,96020.72
2022-11-16T05:52:50.816Z,96002.25
2022-11-16T05:55:37.703Z,96017.84
2022-11-16T05:58:26.772Z,96022.94
2022-11-16T06:01:13.709Z,96022.13
2022-11-16T06:04:03.928Z,96025.00
2022-11-16T06:06:53.894Z,96020.13
2022-11-16T06:09:40.775Z,96019.28
2022-11-16T06:12:27.576Z,96017.47
2022-11-16T06:15:14.456Z,96017.03
2022-11-16T06:18:01.327Z,96012.94
2022-11-16T06:20:48.422Z,96024.56
2022-11-16T06:23:35.345Z,96017.84
2022-11-16T06:26:22.352Z,96014.00
2022-11-16T06:29:09.276Z,96012.38
2022-11-16T06:31:56.119Z,96004.28
2022-11-16T06:34:42.931Z,96004.44
2022-11-16T06:37:29.801Z,96006.72
2022-11-16T06:40:17.038Z,96006.66
2022-11-16T06:43:04.169Z,96016.47
2022-11-16T06:45:52.310Z,96007.91
2022-11-16T06:48:39.127Z,96007.91
2022-11-16T06:51:26.313Z,96002.38
2022-11-16T06:54:13.094Z,96004.81
2022-11-16T06:56:59.902Z,96008.69
2022-11-16T06:59:46.840Z,96001.13
2022-11-16T07:02:36.519Z,96002.56
2022-11-16T07:05:23.494Z,96007.47
2022-11-16T07:08:10.494Z,96011.94
2022-11-16T07:11:04.310Z,95996.66
2022-11-16T07:13:51.374Z,96009.28
2022-11-16T07:16:38.307Z,96007.47
2022-11-16T07:19:25.166Z,96016.19
2022-11-16T07:22:12.099Z,96011.75
2022-11-16T07:24:59.112Z,96006.66
2022-11-16T07:27:46.093Z,96004.00
2022-11-16T07:30:35.521Z,96005.38
2022-11-16T07:33:25.517Z,96003.19
2022-11-16T07:36:25.730Z,95987.66
2022-11-16T07:39:15.683Z,95988.72
2022-11-16T07:42:13.507Z,95996.66
2022-11-16T07:45:03.739Z,96002.19
2022-11-16T07:47:53.846Z,95988.28
2022-11-16T07:50:41.218Z,95985.66
2022-11-16T07:53:28.880Z,95982.56
2022-11-16T07:56:25.635Z,95987.22
2022-11-16T07:59:18.451Z,95987.03
2022-11-16T08:02:05.994Z,95985.38
2022-11-16T08:04:58.863Z,95982.72
2022-11-16T08:07:49.060Z,95980.72
2022-11-16T08:10:36.603Z,95990.34
2022-11-16T08:13:43.644Z,95997.25
2022-11-16T08:16:33.353Z,95987.28
2022-11-16T08:19:20.498Z,95993.81
2022-11-16T08:22:07.438Z,95993.00
2022-11-16T08:24:58.375Z,96003.94
2022-11-16T08:27:45.747Z,96005.97
2022-11-16T08:30:32.720Z,96019.78
2022-11-16T08:33:21.374Z,96016.09
2022-11-16T08:36:14.013Z,96028.34
2022-11-16T08:39:04.087Z,96022.63
2022-11-16T08:41:54.082Z,96016.72
2022-11-16T08:44:40.949Z,96026.53
2022-11-16T08:47:31.653Z,96021.03
2022-11-16T08:50:20.177Z,96023.31
2022-11-16T08:53:07.019Z,96025.50
2022-11-16T08:55:53.862Z,96021.44
2022-11-16T08:58:46.792Z,96013.53
2022-11-16T09:01:35.004Z,96030.06
2022-11-16T09:04:22.874Z,96026.78
2022-11-16T09:07:10.306Z,96014.94
2022-11-16T09:10:00.142Z,96017.41
2022-11-16T09:12:48.689Z,96033.72
2022-11-16T09:15:35.718Z,96019.03
2022-11-16T09:18:22.535Z,96037.41
2022-11-16T09:21:09.674Z,96039.00
2022-11-16T09:23:57.811Z,96037.97
2022-11-16T09:26:44.727Z,96035.34
2022-11-16T09:29:31.538Z,96048.63
2022-11-16T09:32:18.454Z,96047.97
2022-11-16T09:35:08.566Z,96046.94
2022-11-16T09:37:55.404Z,96059.19
2022-11-16T09:40:45.543Z,96062.00
2022-11-16T09:43:45.595Z,96059.19
2022-11-16T09:46:36.490Z,96058.53
2022-11-16T09:49:34.983Z,96057.56
2022-11-16T09:52:28.668Z,96054.28
2022-11-16T09:55:26.517Z,96048.56
2022-11-16T09:58:18.158Z,96048.56
2022-11-16T10:01:19.885Z,96046.78
2022-11-16T10:04:28.872Z,96047.59
2022-11-16T10:07:23.159Z,96028.66
2022-11-16T10:10:14.801Z,96021.94
2022-11-16T10:13:23.494Z,96030.13
2022-11-16T10:16:33.578Z,96027.28
2022-11-16T10:19:30.439Z,96025.44
2022-11-16T10:22:30.575Z,96014.25
2022-11-16T10:25:26.251Z,96000.41
2022-11-16T10:28:37.832Z,95997.59
2022-11-16T10:31:33.712Z,96006.56
2022-11-16T10:34:25.535Z,96009.22
2022-11-16T10:37:13.405Z,96000.84
2022-11-16T10:40:05.681Z,96001.47
2022-11-16T10:43:14.535Z,95998.84
2022-11-16T10:46:23.671Z,95990.91
2022-11-16T10:49:29.225Z,96002.09
2022-11-16T10:52:16.103Z,95986.00
2022-11-16T10:55:02.968Z,95987.03
2022-11-16T10:58:05.237Z,95993.94
2022-11-16T11:00:52.183Z,95987.63
2022-11-16T11:03:39.070Z,95988.06
2022-11-16T11:06:26.550Z,95977.44
2022-11-16T11:09:25.626Z,95981.34
2022-11-16T11:12:38.236Z,95979.16
2022-11-16T11:15:27.100Z,95986.06
2022-11-16T11:18:19.914Z,95992.97
2022-11-16T11:21:13.097Z,95989.53
2022-11-16T11:24:16.361Z,95987.91
2022-11-16T11:27:07.827Z,95984.03
2022-11-16T11:29:55.672Z,95985.47
2022-11-16T11:32:42.470Z,95988.94
2022-11-16T11:35:31.554Z,95980.78
2022-11-16T11:38:18.438Z,95987.31
2022-11-16T11:41:20.968Z,95986.28
2022-11-16T11:44:14.030Z,95989.56
2022-11-16T11:50:48.402Z,95982.47
2022-11-16T11:53:52.705Z,95980.63
2022-11-16T11:56:39.467Z,95983.28
2022-11-16T11:59:29.312Z,95973.13
2022-11-16T12:02:28.278Z,95969.09
2022-11-16T12:05:51.769Z,95975.19
2022-11-16T12:08:47.702Z,95967.09
2022-11-16T12:11:46.898Z,95964.44
2022-11-16T12:14:55.650Z,95978.66
2022-11-16T12:17:45.712Z,95965.19
2022-11-16T12:20:44.692Z,95964.19
2022-11-16T12:23:52.028Z,95954.19
2022-11-16T12:26:55.667Z,95950.78
2022-11-16T12:30:13.663Z,95950.97
2022-11-16T12:33:23.675Z,95946.50
2022-11-16T12:36:23.786Z,95954.03
2022-11-16T12:39:30.771Z,95949.13
2022-11-16T12:42:29.527Z,95945.69
2022-11-16T12:45:30.883Z,95941.03
2022-11-16T12:48:31.072Z,95950.22
2022-11-16T12:51:32.704Z,95941.47
2022-11-16T12:54:57.927Z,95942.91
2022-11-16T12:58:03.238Z,95939.63
2022-11-16T13:01:08.058Z,95946.16
2022-11-16T13:04:04.366Z,95938.63
2022-11-16T13:06:58.555Z,95940.44
2022-11-16T13:09:58.542Z,95949.19
2022-11-16T13:12:52.723Z,95950.22
2022-11-16T13:15:43.344Z,95951.66
2022-11-16T13:18:33.142Z,95946.75
2022-11-16T13:21:53.742Z,95945.78
2022-11-16T13:24:48.653Z,95953.31
2022-11-16T13:27:48.925Z,95938.47
2022-11-16T13:30:57.933Z,95937.84
2022-11-16T13:33:52.296Z,95942.53
2022-11-16T13:36:43.686Z,95934.19
2022-11-16T13:39:58.698Z,95942.16
2022-11-16T13:43:17.232Z,95939.91
2022-11-16T13:46:04.055Z,95941.78
2022-11-16T13:48:51.905Z,95944.41
2022-11-16T13:51:38.703Z,95939.75
2022-11-16T13:54:46.986Z,95938.75
2022-11-16T13:57:34.959Z,95937.72
2022-11-16T14:00:24.747Z,95930.81
2022-11-16T14:03:17.710Z,95930.22
2022-11-16T14:06:06.908Z,95924.28
2022-11-16T14:08:54.141Z,95935.31
2022-11-16T14:11:41.062Z,95919.00
2022-11-16T14:15:12.293Z,95920.66
2022-11-16T14:18:02.417Z,95922.28
2022-11-16T14:20:58.825Z,95927.63
2022-11-16T14:24:01.658Z,95927.19
2022-11-16T14:27:00.349Z,95925.78
2022-11-16T14:30:01.681Z,95917.22
2022-11-16T14:32:52.317Z,95912.75
2022-11-16T14:35:39.773Z,95900.53
2022-11-16T14:38:29.034Z,95906.25
2022-11-16T14:41:22.270Z,95909.53
2022-11-16T14:44:10.005Z,95894.81
2022-11-16T14:46:57.148Z,95899.13
2022-11-16T14:49:52.434Z,95881.84
2022-11-16T14:52:47.896Z,95882.06
2022-11-16T14:55:41.443Z,95879.63
2022-11-16T14:58:28.791Z,95884.31
2022-11-16T15:01:17.645Z,95876.16
2022-11-16T15:04:09.573Z,95865.16
2022-11-16T15:07:05.864Z,95869.06
2022-11-16T15:09:55.145Z,95870.69
2022-11-16T15:12:42.041Z,95873.13
2022-11-16T15:15:30.680Z,95859.47
2022-11-16T15:18:19.126Z,95877.00
2022-11-16T15:21:06.463Z,95868.66
2022-11-16T15:24:23.584Z,95873.94
2022-11-16T15:27:37.014Z,95879.84
2022-11-16T15:32:01.642Z,95885.97
2022-11-16T15:33:57.764Z,95867.41
2022-11-16T15:36:44.989Z,95877.63
2022-11-16T15:39:34.512Z,95891.28
2022-11-16T15:42:24.000Z,95895.97
2022-11-16T15:45:22.330Z,95885.78
2022-11-16T15:48:21.212Z,95892.94
2022-11-16T15:51:19.367Z,95898.84
2022-11-16T15:54:27.638Z,95900.94
2022-11-16T15:57:14.635Z,95906.63
2022-11-16T16:00:01.564Z,95890.34
2022-11-16T16:02:50.931Z,95886.69
2022-11-16T16:05:41.050Z,95883.03
2022-11-16T16:08:37.895Z,95887.72
2022-11-16T16:11:26.867Z,95884.47
2022-11-16T16:14:25.970Z,95890.38
2022-11-16T16:17:23.297Z,95884.06
2022-11-16T16:20:18.260Z,95880.41
2022-11-16T16:23:10.157Z,95887.13
2022-11-16T16:25:56.915Z,95888.13
2022-11-16T16:28:44.388Z,95891.19
2022-11-16T16:31:31.272Z,95891.03
2022-11-16T16:34:18.434Z,95897.94
2022-11-16T16:37:08.617Z,95905.88
2022-11-16T16:39:55.505Z,95901.41
2022-11-16T16:42:43.223Z,95890.81
2022-11-16T16:45:43.386Z,95882.88
2022-11-16T16:48:30.257Z,95883.91
2022-11-16T16:51:17.182Z,95872.91
2022-11-16T16:54:06.068Z,95870.03
2022-11-16T16:56:53.097Z,95877.75
2022-11-16T16:59:45.227Z,95887.53
2022-11-16T17:02:32.328Z,95875.97
2022-11-16T17:05:19.130Z,95879.00
2022-11-16T17:08:08.718Z,95876.78
2022-11-16T17:10:55.597Z,95864.75
2022-11-16T17:13:53.853Z,95865.38
2022-11-16T17:16:40.982Z,95865.16
2022-11-16T17:19:28.811Z,95858.63
2022-11-16T17:22:15.931Z,95861.69
2022-11-16T17:25:02.925Z,95862.91
2022-11-16T17:27:49.757Z,95853.53
2022-11-16T17:30:36.791Z,95853.34
2022-11-16T17:33:23.698Z,95848.44
2022-11-16T17:36:12.286Z,95855.56
2022-11-16T17:38:59.188Z,95855.38
2022-11-16T17:41:46.210Z,95850.69
2022-11-16T17:44:33.255Z,95850.69
2022-11-16T17:47:20.383Z,95867.81
2022-11-16T17:50:09.123Z,95854.16
2022-11-16T17:52:56.078Z,95855.56
2022-11-16T17:55:42.938Z,95854.34
2022-11-16T17:58:30.610Z,95853.94
2022-11-16T18:01:17.921Z,95851.91
2022-11-16T18:04:06.959Z,95860.66
2022-11-16T18:07:00.684Z,95860.47
2022-11-16T18:09:49.152Z,95856.41
2022-11-16T18:12:36.439Z,95850.69
2022-11-16T18:15:29.286Z,95845.00
2022-11-16T18:18:16.873Z,95843.34
2022-11-16T18:21:19.845Z,95849.44
2022-11-16T18:27:37.754Z,95842.75
2022-11-16T18:30:26.749Z,95848.25
2022-11-16T18:33:16.201Z,95846.00
2022-11-16T18:36:08.857Z,95832.56
2022-11-16T18:39:00.432Z,95827.44
2022-11-16T18:41:54.770Z,95836.03
2022-11-16T18:44:50.612Z,95834.78
2022-11-16T18:47:39.716Z,95815.25
2022-11-16T18:50:42.469Z,95816.44
2022-11-16T18:54:12.988Z,95833.16
2022-11-16T18:57:18.863Z,95816.03
2022-11-16T19:00:22.153Z,95811.56
2022-11-16T19:03:14.311Z,95792.59
2022-11-16T19:13:22.730Z,95802.59
2022-11-16T19:16:20.957Z,95798.31
2022-11-16T19:19:16.405Z,95804.25
2022-11-16T19:22:26.076Z,95806.47
2022-11-16T19:25:35.288Z,95786.72
2022-11-16T19:28:28.483Z,95791.41
2022-11-16T19:31:24.650Z,95797.69
2022-11-16T19:34:17.138Z,95793.44
2022-11-16T19:37:35.408Z,95781.84
2022-11-16T19:40:39.599Z,95786.72
2022-11-16T19:43:33.104Z,95801.38
2022-11-16T19:46:24.440Z,95798.72
2022-11-16T19:49:26.122Z,95804.22
2022-11-16T19:52:16.520Z,95809.72
2022-11-16T19:59:09.808Z,95806.47
2022-11-16T20:01:44.874Z,95782.22
2022-11-16T20:04:45.035Z,95789.56
2022-11-16T20:07:57.308Z,95788.13
2022-11-16T20:10:51.503Z,95779.19
2022-11-16T20:16:41.795Z,95786.50
2022-11-16T20:19:45.038Z,95773.88
2022-11-16T20:22:39.892Z,95781.00
2022-11-16T20:25:29.121Z,95794.25
2022-11-16T20:28:19.471Z,95794.25
2022-11-16T20:31:28.515Z,95781.22
2022-11-16T20:34:16.333Z,95784.44
2022-11-16T20:37:10.831Z,95773.88
2022-11-16T20:39:57.737Z,95777.75
2022-11-16T20:42:47.527Z,95767.97
2022-11-16T20:45:43.420Z,95788.34
2022-11-16T20:48:39.259Z,95779.59
2022-11-16T20:51:57.644Z,95776.53
2022-11-16T20:54:47.024Z,95787.72
2022-11-16T20:58:22.783Z,95779.78
2022-11-16T21:01:32.389Z,95773.66
2022-11-16T21:04:25.914Z,95774.88
2022-11-16T21:07:16.472Z,95773.47
2022-11-16T21:10:21.073Z,95781.41
2022-11-16T21:13:34.971Z,95769.19
2022-11-16T21:20:26.343Z,95776.13
2022-11-16T21:26:25.764Z,95779.78
2022-11-16T21:29:28.913Z,95792.41
2022-11-16T21:32:15.923Z,95804.44
2022-11-16T21:35:07.909Z,95798.53
2022-11-16T21:37:57.620Z,95795.25
2022-11-16T21:40:48.104Z,95790.38
2022-11-16T21:43:38.236Z,95799.34
2022-11-16T21:46:26.503Z,95789.97
2022-11-16T21:49:13.501Z,95787.94
2022-11-16T21:52:00.595Z,95797.91
2022-11-16T21:54:49.899Z,95794.84
2022-11-16T21:57:39.055Z,95804.03
2022-11-16T22:00:26.218Z,95807.47
2022-11-16T22:03:13.296Z,95791.81
2022-11-16T22:06:21.545Z,95794.44
2022-11-16T22:09:08.728Z,95794.06
2022-11-16T22:11:59.869Z,95772.66
2022-11-16T22:14:53.440Z,95798.31
2022-11-16T22:17:44.218Z,95767.56
2022-11-16T22:20:31.283Z,95777.94
2022-11-16T22:23:23.320Z,95755.75
2022-11-16T22:26:12.562Z,95748.81
2022-11-16T22:28:59.425Z,95737.81
2022-11-16T22:31:49.426Z,95721.91
2022-11-16T22:34:41.270Z,95724.97
2022-11-16T22:37:30.936Z,95720.47
2022-11-16T22:40:28.791Z,95705.22
2022-11-16T22:43:15.580Z,95713.56
2022-11-16T22:46:04.855Z,95728.41
2022-11-16T22:49:07.235Z,95728.81
2022-11-16T22:51:55.330Z,95722.31
2022-11-16T22:54:47.712Z,95722.31
2022-11-16T22:57:37.508Z,95717.81
2022-11-16T23:00:24.459Z,95727.59
2022-11-16T23:03:11.292Z,95719.88
2022-11-16T23:05:58.190Z,95724.38
2022-11-16T23:08:49.739Z,95711.53
2022-11-16T23:11:55.306Z,95701.13
2022-11-16T23:15:00.880Z,95695.44
2022-11-16T23:17:47.746Z,95706.81
2022-11-16T23:20:53.272Z,95704.59
2022-11-16T23:24:00.530Z,95682.81
2022-11-16T23:27:06.166Z,95691.78
2022-11-16T23:29:53.504Z,95690.34
2022-11-16T23:32:41.563Z,95675.50
2022-11-16T23:35:28.413Z,95672.22
2022-11-16T23:38:15.279Z,95651.44
2022-11-16T23:41:22.192Z,95657.53
2022-11-16T23:44:08.989Z,95652.25
2022-11-16T23:46:56.998Z,95665.69
2022-11-16T23:49:43.888Z,95670.59
2022-11-16T23:52:30.839Z,95649.00
2022-11-16T23:55:17.783Z,95646.38
2022-11-16T23:58:13.374Z,95657.75
